Time;durP1;ratioP1;P1;durP2;ratioP2;P2;SDS_P1;SDS_P2;PMS_P1;PMS_P2;Temp;Humidity;BMP_temperature;BMP_pressure;BME280_temperature;BME280_humidity;BME280_pressure;Samples;Min_cycle;Max_cycle;Signal;HPM_P1;HPM_P2
2021/12/06 00:03:47;;;;;;;31.52;17.67;;;;;;;5.06;100.00;100060.97;8377177;28;20041;-61
2021/12/06 00:07:48;;;;;;;31.50;17.75;;;;;;;5.05;100.00;100076.16;8349559;28;20029;-61
2021/12/06 00:11:51;;;;;;;32.97;18.10;;;;;;;5.02;100.00;100076.41;8356929;28;20080;-62
2021/12/06 00:15:52;;;;;;;31.38;16.98;;;;;;;5.03;100.00;100077.28;8356982;28;20044;-62
2021/12/06 00:19:52;;;;;;;27.80;16.60;;;;;;;4.86;100.00;100080.34;8358662;28;20037;-61
2021/12/06 00:23:53;;;;;;;34.15;18.52;;;;;;;4.66;100.00;100083.69;8371735;28;20122;-61
2021/12/06 00:27:53;;;;;;;30.75;19.05;;;;;;;4.65;100.00;100082.81;8359296;28;20037;-61
2021/12/06 00:31:53;;;;;;;31.02;16.73;;;;;;;4.67;100.00;100090.75;8360634;28;20397;-61
2021/12/06 00:35:57;;;;;;;27.55;17.05;;;;;;;4.52;100.00;100081.16;8361442;28;20037;-61
2021/12/06 00:40:00;;;;;;;37.03;19.30;;;;;;;4.32;100.00;100081.75;8360534;28;20025;-61
2021/12/06 00:44:01;;;;;;;31.23;18.83;;;;;;;4.45;100.00;100085.25;8359891;28;20447;-61
2021/12/06 00:48:02;;;;;;;37.08;19.92;;;;;;;4.42;100.00;100085.50;8360354;28;20097;-61
2021/12/06 00:52:04;;;;;;;39.08;20.35;;;;;;;4.43;100.00;100093.41;8359432;28;20029;-61
2021/12/06 00:56:04;;;;;;;37.78;21.17;;;;;;;4.50;100.00;100100.00;8359822;28;20040;-61
2021/12/06 01:00:12;;;;;;;44.10;22.75;;;;;;;4.47;100.00;100115.44;8360336;28;20044;-61
2021/12/06 01:04:12;;;;;;;37.03;20.63;;;;;;;4.60;100.00;100121.59;8358925;28;20033;-61
2021/12/06 01:08:13;;;;;;;41.28;21.65;;;;;;;4.33;100.00;100131.66;8358977;28;20368;-61
2021/12/06 01:12:14;;;;;;;38.08;20.73;;;;;;;4.38;100.00;100137.50;8371698;28;20043;-61
2021/12/06 01:16:16;;;;;;;37.72;20.60;;;;;;;4.53;100.00;100139.94;8374544;28;20028;-61
2021/12/06 01:20:21;;;;;;;37.10;19.27;;;;;;;4.41;100.00;100142.63;8359078;28;20117;-61
2021/12/06 01:24:28;;;;;;;35.60;19.15;;;;;;;4.40;100.00;100151.63;8347961;28;20316;-61
2021/12/06 01:41:33;;;;;;;38.90;20.95;;;;;;;4.33;100.00;100161.06;8358408;28;20528;-61
2021/12/06 01:45:34;;;;;;;32.85;19.25;;;;;;;4.11;100.00;100174.28;8358459;28;20551;-61
2021/12/06 01:49:38;;;;;;;35.85;19.27;;;;;;;4.12;100.00;100178.66;8358460;28;20459;-61
2021/12/06 01:53:38;;;;;;;30.98;19.15;;;;;;;4.15;100.00;100179.31;8357521;28;20029;-61
2021/12/06 01:57:39;;;;;;;37.13;20.27;;;;;;;4.26;100.00;100181.19;8358277;28;20090;-61
2021/12/06 02:01:40;;;;;;;39.70;19.30;;;;;;;4.29;100.00;100181.84;8364250;28;20060;-61
2021/12/06 02:05:45;;;;;;;31.25;18.27;;;;;;;4.34;100.00;100194.88;8373826;28;20033;-61
2021/12/06 02:09:47;;;;;;;37.40;18.17;;;;;;;4.08;100.00;100184.22;8356330;28;20029;-59
2021/12/06 02:13:57;;;;;;;31.75;18.50;;;;;;;3.95;100.00;100194.06;8354844;28;20391;-60
2021/12/06 02:18:07;;;;;;;34.55;20.40;;;;;;;4.00;100.00;100191.91;8355747;28;20152;-60
2021/12/06 02:22:14;;;;;;;37.65;21.50;;;;;;;4.06;100.00;100202.19;8372006;28;20078;-60
2021/12/06 02:26:15;;;;;;;39.70;20.63;;;;;;;4.12;100.00;100200.06;8386101;28;20040;-60
2021/12/06 02:30:18;;;;;;;36.97;20.02;;;;;;;4.09;100.00;100204.63;8386794;28;20114;-60
2021/12/06 02:34:18;;;;;;;38.25;21.23;;;;;;;4.07;100.00;100203.06;8354616;28;20049;-60
2021/12/06 02:38:20;;;;;;;37.10;20.75;;;;;;;3.78;100.00;100213.09;8354680;28;20045;-60
2021/12/06 02:42:21;;;;;;;38.78;19.77;;;;;;;3.74;100.00;100222.28;8354550;28;20565;-60
2021/12/06 02:46:23;;;;;;;42.65;22.98;;;;;;;3.78;100.00;100218.44;8356658;28;20120;-59
2021/12/06 02:50:27;;;;;;;41.88;22.63;;;;;;;3.84;100.00;100215.34;8371854;28;20389;-60
2021/12/06 02:54:29;;;;;;;40.30;21.60;;;;;;;3.89;100.00;100221.22;8370993;28;20067;-60
2021/12/06 03:02:48;;;;;;;48.05;25.05;;;;;;;3.97;100.00;100240.25;8335761;27;20463;-60
2021/12/06 03:06:53;;;;;;;45.78;23.30;;;;;;;3.84;100.00;100247.41;8365405;28;20574;-60
2021/12/06 03:10:53;;;;;;;47.13;23.65;;;;;;;3.87;100.00;100249.00;8350507;28;20043;-60
2021/12/06 03:14:57;;;;;;;54.75;25.40;;;;;;;3.90;100.00;100260.38;8350198;28;20041;-60
2021/12/06 03:18:58;;;;;;;43.35;24.50;;;;;;;3.89;100.00;100250.66;8349656;28;20037;-60
2021/12/06 03:22:58;;;;;;;42.58;21.55;;;;;;;3.82;100.00;100261.88;8349685;28;20080;-59
2021/12/06 03:26:59;;;;;;;41.83;21.45;;;;;;;3.72;100.00;100266.97;8350119;28;20029;-60
2021/12/06 03:31:00;;;;;;;49.53;22.08;;;;;;;3.82;100.00;100267.22;8349581;28;20045;-60
2021/12/06 03:35:01;;;;;;;44.03;22.65;;;;;;;4.02;100.00;100275.56;8348205;28;20033;-60
2021/12/06 03:39:05;;;;;;;36.95;22.35;;;;;;;4.16;100.00;100277.31;8348087;28;20037;-59
2021/12/06 03:43:05;;;;;;;42.75;23.75;;;;;;;4.23;100.00;100277.72;8348927;28;20042;-60
2021/12/06 03:47:11;;;;;;;39.72;20.90;;;;;;;4.00;100.00;100288.19;8348999;28;20375;-60
2021/12/06 03:51:12;;;;;;;39.97;20.08;;;;;;;3.95;100.00;100290.34;8349117;28;20721;-60
2021/12/06 03:55:13;;;;;;;45.97;23.02;;;;;;;3.81;100.00;100292.22;8348273;28;20492;-60
2021/12/06 03:59:15;;;;;;;42.38;22.70;;;;;;;3.82;100.00;100288.59;8348142;28;20045;-60
2021/12/06 04:03:17;;;;;;;46.60;23.13;;;;;;;4.09;100.00;100292.06;8348116;28;20455;-60
2021/12/06 04:07:18;;;;;;;46.22;22.80;;;;;;;3.97;100.00;100298.25;8336718;28;20084;-59
2021/12/06 04:11:19;;;;;;;45.00;24.05;;;;;;;4.12;100.00;100301.69;8340441;28;20041;-60
2021/12/06 04:15:19;;;;;;;39.40;21.13;;;;;;;3.88;100.00;100302.38;8326102;28;20044;-60
2021/12/06 04:19:20;;;;;;;47.03;22.65;;;;;;;4.06;100.00;100298.47;8326153;28;20064;-60
2021/12/06 04:23:21;;;;;;;43.47;22.65;;;;;;;4.03;100.00;100296.00;8325201;28;20120;-60
2021/12/06 04:27:22;;;;;;;42.60;23.00;;;;;;;4.06;100.00;100287.75;8323399;28;20120;-60
2021/12/06 04:31:22;;;;;;;41.25;22.85;;;;;;;4.03;100.00;100296.00;8324825;28;20029;-59
2021/12/06 04:35:24;;;;;;;43.70;24.25;;;;;;;4.06;100.00;100293.13;8324459;28;20037;-60
2021/12/06 04:39:25;;;;;;;42.15;22.17;;;;;;;3.98;100.00;100300.81;8325514;28;20041;-60
2021/12/06 04:43:25;;;;;;;45.88;22.85;;;;;;;3.81;100.00;100303.78;8325822;28;20056;-60
2021/12/06 04:47:26;;;;;;;43.65;22.00;;;;;;;3.81;100.00;100309.13;8322531;28;20033;-60
2021/12/06 04:51:27;;;;;;;47.88;23.10;;;;;;;3.91;100.00;100315.56;8324076;28;20116;-60
2021/12/06 04:55:37;;;;;;;43.95;21.88;;;;;;;3.80;100.00;100323.47;8325037;28;20029;-60
2021/12/06 04:59:42;;;;;;;37.55;20.45;;;;;;;3.72;100.00;100315.09;8325128;28;20286;-60
2021/12/06 05:03:42;;;;;;;;;;;;;;;3.37;100.00;100318.38;8323980;28;20037;-61
2021/12/06 05:07:49;;;;;;;39.95;20.60;;;;;;;3.35;100.00;100329.16;8323881;28;20004;-62
2021/12/06 05:11:49;;;;;;;44.00;20.90;;;;;;;3.27;100.00;100339.47;8323263;28;20462;-62
2021/12/06 05:15:50;;;;;;;42.33;22.55;;;;;;;3.22;100.00;100357.63;8323350;28;20038;-62
2021/12/06 05:19:51;;;;;;;44.90;21.52;;;;;;;3.21;100.00;100355.94;8323388;28;20055;-62
2021/12/06 05:23:52;;;;;;;50.13;23.13;;;;;;;3.21;100.00;100371.94;8321393;28;20042;-62
2021/12/06 05:27:53;;;;;;;38.13;21.48;;;;;;;3.09;100.00;100371.88;8322952;28;20037;-62
2021/12/06 05:31:56;;;;;;;46.42;23.15;;;;;;;3.10;100.00;100385.13;8322793;28;20087;-61
2021/12/06 05:35:59;;;;;;;43.73;21.17;;;;;;;3.08;100.00;100381.69;8322613;28;20123;-60
2021/12/06 05:39:59;;;;;;;50.67;23.10;;;;;;;3.16;100.00;100394.53;8322205;28;20297;-60
2021/12/06 05:44:00;;;;;;;44.67;21.83;;;;;;;3.04;100.00;100389.97;8323335;28;20045;-60
2021/12/06 05:48:01;;;;;;;37.75;20.13;;;;;;;2.98;100.00;100396.56;8322158;28;20598;-60
2021/12/06 05:52:02;;;;;;;43.40;21.50;;;;;;;3.01;100.00;100395.50;8319811;28;20401;-60
2021/12/06 05:56:03;;;;;;;46.25;23.42;;;;;;;3.10;100.00;100417.16;8318984;28;20755;-60
2021/12/06 06:00:09;;;;;;;42.60;23.27;;;;;;;3.22;100.00;100412.84;8318024;28;20498;-60
2021/12/06 06:04:09;;;;;;;44.20;22.50;;;;;;;3.25;100.00;100410.00;8314841;28;20069;-60
2021/12/06 06:08:10;;;;;;;50.63;25.05;;;;;;;3.27;100.00;100413.44;8321002;28;20523;-60
2021/12/06 06:12:10;;;;;;;54.25;27.05;;;;;;;3.32;100.00;100424.66;8320781;28;20536;-60
2021/12/06 06:16:11;;;;;;;55.65;27.10;;;;;;;3.28;100.00;100432.03;8317620;28;20472;-60
2021/12/06 06:20:18;;;;;;;56.33;27.85;;;;;;;3.23;100.00;100433.28;8306061;28;20042;-60
2021/12/06 06:24:18;;;;;;;61.17;27.50;;;;;;;3.30;100.00;100430.09;8307967;28;20125;-60
2021/12/06 06:28:18;;;;;;;55.90;27.08;;;;;;;3.39;100.00;100442.03;8300511;28;20052;-60
2021/12/06 06:32:19;;;;;;;55.25;24.55;;;;;;;3.42;100.00;100440.00;8304230;28;20080;-60
2021/12/06 06:36:19;;;;;;;44.90;21.60;;;;;;;3.59;100.00;100436.25;8306462;28;20045;-62
2021/12/06 06:40:20;;;;;;;69.80;29.30;;;;;;;3.52;100.00;100441.16;8320556;28;20040;-61
2021/12/06 06:44:21;;;;;;;85.53;27.92;;;;;;;3.47;100.00;100443.25;8322657;28;20038;-60
2021/12/06 06:48:21;;;;;;;96.82;28.40;;;;;;;3.44;100.00;100442.59;8324617;28;20690;-61
2021/12/06 06:52:22;;;;;;;97.22;30.75;;;;;;;3.39;100.00;100440.22;8324750;28;20112;-61
2021/12/06 06:56:22;;;;;;;151.75;40.97;;;;;;;3.37;100.00;100444.81;8324508;28;20040;-61
2021/12/06 07:00:35;;;;;;;128.32;34.40;;;;;;;3.24;100.00;100437.66;8324221;28;20467;-60
2021/12/06 07:04:35;;;;;;;100.07;30.83;;;;;;;3.24;100.00;100435.88;8324028;28;20037;-61
2021/12/06 07:08:36;;;;;;;110.90;31.90;;;;;;;3.24;100.00;100430.53;8324911;28;20512;-60
2021/12/06 07:12:48;;;;;;;98.45;31.02;;;;;;;3.20;100.00;100436.97;8325417;28;20038;-60
2021/12/06 07:16:49;;;;;;;108.55;35.67;;;;;;;3.23;100.00;100439.47;8324278;28;20509;-60
2021/12/06 07:20:49;;;;;;;104.15;36.78;;;;;;;3.33;100.00;100459.28;8324648;28;20681;-61
2021/12/06 07:24:49;;;;;;;160.07;41.03;;;;;;;3.46;100.00;100460.25;8322228;28;20037;-60
2021/12/06 07:28:51;;;;;;;162.38;38.05;;;;;;;3.45;100.00;100469.22;8321873;28;20032;-61
2021/12/06 07:32:52;;;;;;;391.75;49.75;;;;;;;3.58;100.00;100467.50;8323836;28;20037;-61
2021/12/06 07:36:53;;;;;;;215.38;42.15;;;;;;;3.78;100.00;100469.72;8323721;28;20034;-60
2021/12/06 07:40:54;;;;;;;139.02;39.53;;;;;;;3.54;100.00;100484.66;8323627;28;20066;-60
2021/12/06 07:44:55;;;;;;;204.25;42.05;;;;;;;3.59;100.00;100490.59;8322887;28;20508;-60
2021/12/06 07:48:55;;;;;;;144.85;42.00;;;;;;;3.66;100.00;100481.22;8328905;28;20497;-61
2021/12/06 07:52:56;;;;;;;153.00;43.05;;;;;;;3.81;100.00;100480.22;8329274;28;20393;-61
2021/12/06 07:56:56;;;;;;;201.02;45.15;;;;;;;3.98;100.00;100480.00;8329332;28;20037;-60
2021/12/06 08:00:57;;;;;;;233.02;48.45;;;;;;;4.12;100.00;100480.91;8327613;28;20037;-60
2021/12/06 08:05:29;;;;;;;242.30;47.88;;;;;;;4.25;100.00;100473.78;8329802;28;20042;-61
2021/12/06 08:09:18;;;;;;;280.55;49.25;;;;;;;4.35;100.00;100474.88;8328835;28;20511;-61
2021/12/06 08:13:21;;;;;;;253.85;45.53;;;;;;;4.36;100.00;100476.59;8328937;28;20108;-61
2021/12/06 08:17:25;;;;;;;220.10;46.42;;;;;;;4.43;100.00;100473.41;8328855;28;20523;-61
2021/12/06 08:21:27;;;;;;;291.50;43.88;;;;;;;4.33;100.00;100471.47;8328425;28;20045;-61
2021/12/06 08:25:28;;;;;;;239.38;45.72;;;;;;;4.32;100.00;100472.41;8328382;28;20045;-61
2021/12/06 08:29:28;;;;;;;265.40;46.92;;;;;;;4.35;100.00;100472.19;8328376;28;20409;-61
2021/12/06 08:33:29;;;;;;;225.90;41.85;;;;;;;4.31;100.00;100473.38;8328616;28;20057;-60
2021/12/06 08:37:30;;;;;;;204.60;35.17;;;;;;;4.28;100.00;100479.78;8327963;28;20029;-61
2021/12/06 08:41:31;;;;;;;223.50;33.47;;;;;;;4.19;100.00;100482.22;8327690;28;20034;-60
2021/12/06 08:45:32;;;;;;;218.88;36.33;;;;;;;4.27;100.00;100487.91;8326720;28;20037;-61
2021/12/06 08:49:32;;;;;;;163.18;32.53;;;;;;;4.16;100.00;100493.13;8328367;28;20021;-61
2021/12/06 08:53:33;;;;;;;133.95;30.60;;;;;;;4.17;100.00;100493.00;8328251;28;20040;-61
2021/12/06 08:57:34;;;;;;;134.18;30.60;;;;;;;4.16;100.00;100501.13;8327685;28;20112;-61
2021/12/06 09:01:36;;;;;;;142.48;29.95;;;;;;;4.16;100.00;100495.78;8327524;28;20072;-61
2021/12/06 09:05:41;;;;;;;165.45;32.85;;;;;;;4.19;100.00;100501.81;8327029;28;20049;-61
2021/12/06 09:09:46;;;;;;;138.07;32.05;;;;;;;4.17;100.00;100492.19;8326795;28;20037;-61
2021/12/06 09:13:47;;;;;;;161.35;34.50;;;;;;;4.18;100.00;100484.06;8326435;28;20036;-61
2021/12/06 09:17:49;;;;;;;157.27;37.10;;;;;;;4.17;100.00;100482.31;8326133;28;20056;-61
2021/12/06 09:21:50;;;;;;;139.57;36.45;;;;;;;4.32;100.00;100480.44;8325964;28;20037;-61
2021/12/06 09:25:50;;;;;;;143.38;38.90;;;;;;;4.58;100.00;100471.53;8326059;28;20030;-61
2021/12/06 09:29:51;;;;;;;129.85;34.47;;;;;;;4.57;100.00;100472.50;8323577;28;20040;-64
2021/12/06 09:33:51;;;;;;;141.40;36.22;;;;;;;4.65;100.00;100478.16;8323218;28;20034;-64
2021/12/06 09:37:54;;;;;;;136.35;36.35;;;;;;;5.29;100.00;100480.78;8322927;28;20030;-64
2021/12/06 09:41:55;;;;;;;115.05;32.97;;;;;;;6.30;100.00;100481.38;8322906;28;20155;-64
2021/12/06 09:45:56;;;;;;;116.18;36.95;;;;;;;8.13;100.00;100482.84;8322349;28;20140;-64
2021/12/06 09:49:57;;;;;;;55.70;23.58;;;;;;;9.56;85.22;100478.56;8288356;28;20033;-64
2021/12/06 09:53:59;;;;;;;31.58;14.77;;;;;;;9.27;82.06;100482.97;8289065;28;20038;-64
2021/12/06 09:58:01;;;;;;;29.33;14.50;;;;;;;9.02;84.66;100488.75;8289414;28;20452;-64
2021/12/06 10:02:08;;;;;;;23.52;11.70;;;;;;;9.81;82.16;100495.16;8305003;28;20069;-64
2021/12/06 10:06:08;;;;;;;20.75;11.45;;;;;;;11.57;74.28;100500.25;8323393;28;20053;-62
2021/12/06 10:10:12;;;;;;;14.48;7.72;;;;;;;12.54;70.62;100493.34;8327356;28;20144;-62
2021/12/06 10:14:15;;;;;;;14.25;9.00;;;;;;;10.92;74.22;100481.25;8328075;28;20041;-62
2021/12/06 10:18:18;;;;;;;14.20;8.68;;;;;;;10.70;75.23;100488.84;8328484;28;20041;-62
2021/12/06 10:22:18;;;;;;;17.02;9.18;;;;;;;10.64;76.03;100487.53;8327712;28;20033;-62
2021/12/06 10:26:22;;;;;;;17.00;9.63;;;;;;;10.29;75.10;100470.16;8327264;28;20547;-62
2021/12/06 10:30:24;;;;;;;17.70;8.75;;;;;;;10.11;77.30;100480.78;8326685;28;20030;-62
2021/12/06 10:34:27;;;;;;;16.42;8.70;;;;;;;11.46;74.07;100475.19;8327179;28;20087;-62
2021/12/06 10:38:32;;;;;;;15.93;8.98;;;;;;;11.29;73.14;100457.84;8325920;28;20120;-63
2021/12/06 10:42:37;;;;;;;16.05;9.98;;;;;;;11.36;73.50;100453.56;8327056;28;20041;-62
2021/12/06 10:46:42;;;;;;;17.35;9.45;;;;;;;11.35;72.72;100451.84;8326889;28;20131;-62
2021/12/06 10:55:06;;;;;;;17.30;9.02;;;;;;;11.93;73.46;100432.69;8408749;27;20472;-62
2021/12/06 10:59:21;;;;;;;21.10;10.80;;;;;;;12.46;70.23;100436.31;8404700;27;20043;-62
2021/12/06 11:03:33;;;;;;;13.35;8.38;;;;;;;12.40;68.91;100426.06;8402767;27;20051;-62
2021/12/06 11:07:33;;;;;;;19.02;10.73;;;;;;;13.35;68.25;100419.75;8402922;27;20044;-62
2021/12/06 11:11:37;;;;;;;16.27;8.75;;;;;;;12.85;69.27;100415.97;8403177;27;20540;-62
2021/12/06 11:15:53;;;;;;;11.57;7.88;;;;;;;13.76;64.95;100410.81;8397841;27;20491;-63
2021/12/06 11:19:54;;;;;;;11.93;7.03;;;;;;;12.61;69.41;100410.34;8383801;28;20108;-64
2021/12/06 11:28:25;;;;;;;11.70;7.30;;;;;;;12.82;68.27;100394.59;8353110;27;20375;-64
2021/12/06 11:32:31;;;;;;;9.70;5.05;;;;;;;13.58;64.86;100389.16;8349788;28;20052;-64
2021/12/06 11:36:32;;;;;;;10.43;5.30;;;;;;;12.98;65.53;100394.69;8349719;28;20064;-64
2021/12/06 11:40:38;;;;;;;5.38;4.20;;;;;;;12.59;67.03;100367.09;8349390;28;20030;-64
2021/12/06 11:44:42;;;;;;;8.68;5.28;;;;;;;12.95;66.37;100363.31;8349162;28;20451;-64
2021/12/06 11:48:43;;;;;;;6.73;4.50;;;;;;;12.36;69.26;100354.19;8348916;28;20480;-64
2021/12/06 11:52:48;;;;;;;6.20;4.65;;;;;;;11.92;67.94;100347.00;8345503;28;20424;-64
2021/12/06 11:56:51;;;;;;;7.03;5.10;;;;;;;11.91;69.90;100340.72;8348135;28;20041;-64
2021/12/06 12:01:13;;;;;;;5.85;4.28;;;;;;;11.19;71.79;100343.38;8348599;28;20369;-64
2021/12/06 12:05:34;;;;;;;7.00;4.68;;;;;;;10.78;74.25;100335.69;8347403;28;20387;-64
2021/12/06 12:09:38;;;;;;;5.57;4.70;;;;;;;10.12;76.17;100341.19;8347300;28;20584;-65
2021/12/06 12:13:38;;;;;;;7.25;4.43;;;;;;;9.47;77.92;100328.28;8347939;28;20079;-64
2021/12/06 12:17:40;;;;;;;4.97;3.47;;;;;;;9.33;79.25;100339.47;8347944;28;20029;-64
2021/12/06 12:21:41;;;;;;;6.32;4.35;;;;;;;8.95;85.16;100332.06;8347075;28;20033;-64
2021/12/06 12:25:50;;;;;;;7.63;5.40;;;;;;;8.64;85.47;100326.78;8347757;28;20072;-64
2021/12/06 12:29:54;;;;;;;15.70;7.65;;;;;;;8.81;88.44;100331.59;8343942;28;20044;-64
2021/12/06 12:33:55;;;;;;;18.17;9.57;;;;;;;8.77;89.50;100327.41;8347545;28;20037;-64
2021/12/06 12:37:57;;;;;;;24.88;12.73;;;;;;;8.31;91.64;100321.59;8335083;28;20334;-64
2021/12/06 12:42:01;;;;;;;25.98;13.63;;;;;;;8.22;93.12;100330.44;8325115;28;20044;-64
2021/12/06 12:46:07;;;;;;;33.53;15.40;;;;;;;8.04;95.77;100328.34;8324826;28;20029;-64
2021/12/06 12:50:12;;;;;;;28.35;14.77;;;;;;;7.79;95.94;100334.06;8319324;28;22303;-64
2021/12/06 12:58:30;;;;;;;28.33;14.55;;;;;;;7.57;96.09;100312.59;8387565;27;20486;-64
2021/12/06 13:02:34;;;;;;;26.52;13.52;;;;;;;7.64;95.47;100300.34;8381525;28;20040;-65
2021/12/06 13:06:39;;;;;;;14.02;7.75;;;;;;;7.85;89.18;100300.41;8382074;28;20037;-64
2021/12/06 13:10:44;;;;;;;14.77;8.07;;;;;;;7.87;87.89;100293.88;8381456;28;20045;-64
2021/12/06 13:14:50;;;;;;;14.73;7.30;;;;;;;7.91;85.60;100297.19;8381444;28;20516;-64
2021/12/06 13:19:07;;;;;;;5.20;3.83;;;;;;;8.21;80.25;100280.25;8375899;28;20055;-64
2021/12/06 13:23:10;;;;;;;5.85;3.13;;;;;;;8.32;76.92;100266.78;8368110;28;20116;-64
2021/12/06 13:31:29;;;;;;;5.30;2.63;;;;;;;8.41;75.05;100258.72;8322868;28;20905;-64
2021/12/06 13:35:53;;;;;;;4.22;2.83;;;;;;;8.45;74.20;100254.78;8351910;28;20428;-64
2021/12/06 13:39:53;;;;;;;3.83;2.88;;;;;;;8.51;75.15;100245.34;8309028;28;20041;-64
2021/12/06 13:44:09;;;;;;;3.33;2.50;;;;;;;8.33;75.18;100246.94;8357011;28;20128;-64
2021/12/06 13:48:15;;;;;;;6.18;3.28;;;;;;;8.17;75.36;100238.44;8319574;28;20037;-65
2021/12/06 13:52:15;;;;;;;4.32;2.92;;;;;;;8.27;75.11;100231.31;8322936;28;20052;-64
2021/12/06 13:56:16;;;;;;;5.38;3.42;;;;;;;8.18;75.99;100221.28;8325489;28;20041;-64
2021/12/06 14:00:24;;;;;;;5.38;3.20;;;;;;;8.09;74.31;100215.69;8335285;28;20120;-64
2021/12/06 14:04:25;;;;;;;4.75;3.00;;;;;;;7.89;74.97;100216.56;8338057;28;20037;-64
2021/12/06 14:08:26;;;;;;;5.18;3.00;;;;;;;7.83;76.46;100225.19;8329216;28;20511;-64
2021/12/06 14:12:32;;;;;;;5.88;3.03;;;;;;;7.66;75.83;100214.97;8343702;28;20087;-64
2021/12/06 14:16:33;;;;;;;4.18;2.83;;;;;;;7.63;76.11;100207.16;8338582;28;20099;-64
2021/12/06 14:20:34;;;;;;;5.00;3.78;;;;;;;7.52;77.26;100201.84;8317081;28;20042;-64
2021/12/06 14:24:37;;;;;;;5.38;3.25;;;;;;;7.43;78.25;100183.81;8320489;28;20041;-64
2021/12/06 14:28:46;;;;;;;5.93;3.33;;;;;;;7.28;78.51;100185.09;8343135;28;20243;-64
2021/12/06 14:32:50;;;;;;;6.05;3.60;;;;;;;7.24;80.37;100186.31;8306386;28;20153;-64
2021/12/06 14:36:51;;;;;;;7.10;3.53;;;;;;;7.14;80.74;100188.03;8311604;28;20493;-64
2021/12/06 14:40:55;;;;;;;6.50;3.60;;;;;;;6.97;80.50;100183.22;8307489;28;20052;-64
2021/12/06 14:45:02;;;;;;;5.60;3.70;;;;;;;6.97;80.40;100167.09;8308702;28;20041;-64
2021/12/06 14:49:12;;;;;;;5.80;3.65;;;;;;;6.89;79.83;100164.19;8321910;28;20620;-64
2021/12/06 14:53:31;;;;;;;7.28;3.92;;;;;;;6.88;78.91;100151.75;8322036;28;20152;-64
2021/12/06 14:57:33;;;;;;;8.20;3.80;;;;;;;6.86;79.06;100148.31;8323200;28;20168;-64
2021/12/06 15:01:33;;;;;;;7.53;4.55;;;;;;;6.49;82.04;100138.88;8322256;28;20120;-64
2021/12/06 15:05:39;;;;;;;8.65;5.57;;;;;;;6.39;84.62;100135.22;8322448;28;20045;-64
2021/12/06 15:09:40;;;;;;;8.50;5.40;;;;;;;6.32;85.44;100147.44;8319798;28;20041;-64
2021/12/06 15:13:43;;;;;;;14.73;5.72;;;;;;;6.37;83.66;100139.84;8303639;28;20168;-64
2021/12/06 15:17:44;;;;;;;14.20;5.85;;;;;;;6.26;84.26;100139.88;8315619;28;20211;-64
2021/12/06 15:21:47;;;;;;;11.52;6.03;;;;;;;6.23;84.40;100137.44;8309264;28;20041;-64
2021/12/06 15:25:52;;;;;;;9.88;5.63;;;;;;;6.12;84.60;100134.75;8314301;28;20053;-64
2021/12/06 15:29:53;;;;;;;10.40;6.68;;;;;;;5.83;86.37;100122.81;8303766;28;20381;-64
2021/12/06 15:33:56;;;;;;;17.83;6.90;;;;;;;5.53;87.59;100103.69;8303997;28;20053;-64
2021/12/06 15:37:57;;;;;;;15.52;8.48;;;;;;;5.53;87.59;100111.75;8318658;28;20050;-64
2021/12/06 15:42:17;;;;;;;13.75;8.00;;;;;;;5.51;87.69;100111.00;8319396;28;20119;-64
2021/12/06 15:46:20;;;;;;;12.15;6.13;;;;;;;5.52;88.39;100108.19;8319342;28;20525;-64
2021/12/06 15:50:25;;;;;;;14.30;6.20;;;;;;;5.55;88.18;100112.50;8301109;28;20038;-64
2021/12/06 15:54:29;;;;;;;10.48;5.55;;;;;;;5.53;88.73;100095.66;8312799;28;20111;-64
2021/12/06 15:58:29;;;;;;;12.07;6.60;;;;;;;5.46;89.15;100102.47;8319355;28;20052;-64
2021/12/06 16:02:34;;;;;;;12.90;7.40;;;;;;;5.45;88.90;100101.63;8318662;28;20116;-63
2021/12/06 16:06:36;;;;;;;14.98;7.38;;;;;;;5.50;87.89;100101.25;8319047;28;20029;-64
2021/12/06 16:10:42;;;;;;;12.55;6.18;;;;;;;5.54;87.52;100100.03;8317738;28;20095;-64
2021/12/06 16:14:46;;;;;;;10.80;5.85;;;;;;;5.52;87.85;100096.66;8316556;28;20493;-64
2021/12/06 16:18:48;;;;;;;;;;;;;;;5.47;88.47;100094.31;8316488;28;20064;-64
2021/12/06 16:22:52;;;;;;;12.70;6.20;;;;;;;5.43;89.51;100092.81;8300803;28;19928;-63
2021/12/06 16:26:55;;;;;;;11.27;5.88;;;;;;;5.48;88.87;100095.16;8301209;28;20074;-64
2021/12/06 16:30:59;;;;;;;10.80;5.75;;;;;;;5.50;88.71;100093.22;8315829;28;20126;-64
2021/12/06 16:34:59;;;;;;;8.18;5.72;;;;;;;5.36;90.13;100093.41;8317710;28;20038;-64
2021/12/06 16:39:12;;;;;;;10.50;5.25;;;;;;;5.56;88.76;100087.38;8309221;28;20087;-64
2021/12/06 16:43:13;;;;;;;8.20;5.00;;;;;;;5.80;85.53;100085.47;8284085;28;20113;-64
2021/12/06 16:51:40;;;;;;;9.38;5.05;;;;;;;6.17;81.29;100062.78;8404098;27;20938;-64
2021/12/06 16:55:54;;;;;;;10.13;5.50;;;;;;;6.16;81.26;100050.34;8395196;27;20033;-64
2021/12/06 16:59:55;;;;;;;9.57;5.15;;;;;;;6.10;82.00;100040.09;8371431;27;20438;-64
2021/12/06 17:03:57;;;;;;;12.30;6.22;;;;;;;6.00;83.22;100036.44;8384218;27;20044;-64
2021/12/06 17:08:04;;;;;;;11.40;7.07;;;;;;;5.74;85.97;100027.78;8367393;28;20037;-64
2021/12/06 17:12:05;;;;;;;9.65;5.80;;;;;;;5.74;86.33;100032.31;8387867;27;20048;-63
2021/12/06 17:16:14;;;;;;;13.55;8.38;;;;;;;5.62;87.56;100038.63;8402546;27;20093;-64
2021/12/06 17:20:18;;;;;;;15.40;8.25;;;;;;;5.50;88.51;100027.06;8412748;27;20495;-64
2021/12/06 17:24:28;;;;;;;15.07;8.70;;;;;;;5.49;87.70;100024.50;8336507;28;20068;-63
2021/12/06 17:28:36;;;;;;;16.63;8.15;;;;;;;5.58;87.28;100037.19;8348639;28;20520;-64
2021/12/06 17:32:51;;;;;;;14.30;8.13;;;;;;;5.59;87.13;100055.84;8357182;28;20148;-64
2021/12/06 17:36:54;;;;;;;12.20;8.13;;;;;;;5.53;88.17;100058.13;8350942;28;20036;-64
2021/12/06 17:40:55;;;;;;;15.02;8.15;;;;;;;5.55;88.30;100034.75;8367366;28;20038;-63
2021/12/06 17:44:56;;;;;;;19.45;10.98;;;;;;;5.48;89.21;100034.38;8344698;28;20072;-64
2021/12/06 17:48:59;;;;;;;15.20;8.68;;;;;;;5.49;89.59;100037.91;8356507;28;20493;-64
2021/12/06 17:53:01;;;;;;;17.65;9.18;;;;;;;5.47;89.51;100045.19;8339150;28;20067;-64
2021/12/06 17:57:03;;;;;;;15.85;8.40;;;;;;;5.39;90.46;100040.44;8360267;28;20043;-63
2021/12/06 18:01:07;;;;;;;16.63;8.98;;;;;;;5.38;89.85;100027.16;8327632;28;20045;-64
2021/12/06 18:05:14;;;;;;;14.90;7.85;;;;;;;5.37;90.40;100033.50;8316680;28;20045;-64
2021/12/06 18:09:15;;;;;;;21.85;10.63;;;;;;;5.34;91.55;100017.66;8327435;28;20044;-64
2021/12/06 18:13:16;;;;;;;16.42;8.48;;;;;;;5.33;91.49;100011.44;8334887;28;20074;-64
2021/12/06 18:17:17;;;;;;;16.77;8.90;;;;;;;5.36;91.11;100021.91;8353319;28;20052;-64
2021/12/06 18:21:17;;;;;;;16.15;8.57;;;;;;;5.38;90.69;100003.91;8337220;28;20464;-64
2021/12/06 18:25:18;;;;;;;13.45;7.10;;;;;;;5.40;89.39;99993.91;8326225;28;20493;-63
2021/12/06 18:29:22;;;;;;;15.57;8.38;;;;;;;5.43;88.28;99982.09;8328072;28;20037;-64
2021/12/06 18:33:22;;;;;;;12.43;6.72;;;;;;;5.48;87.08;99961.13;8315043;28;20049;-64
2021/12/06 18:37:23;;;;;;;13.13;7.55;;;;;;;5.48;87.19;99955.75;8292219;28;20059;-63
2021/12/06 18:41:24;;;;;;;12.98;7.32;;;;;;;5.46;87.05;99944.34;8316101;28;20159;-63
2021/12/06 18:45:28;;;;;;;11.55;7.28;;;;;;;5.44;87.91;99940.91;8353233;28;20159;-64
2021/12/06 18:49:31;;;;;;;;;;;;;;;5.36;88.43;99916.53;8327818;28;20049;-63
2021/12/06 18:53:32;;;;;;;13.88;8.10;;;;;;;5.39;88.34;99924.34;8334485;28;19944;-63
2021/12/06 18:57:32;;;;;;;15.32;6.80;;;;;;;5.42;88.09;99910.69;8348137;28;20029;-64
2021/12/06 19:01:34;;;;;;;14.90;7.78;;;;;;;5.46;87.99;99885.38;8341729;28;20288;-64
2021/12/06 19:05:35;;;;;;;13.85;8.10;;;;;;;5.44;88.36;99885.50;8350041;28;20441;-62
2021/12/06 19:09:35;;;;;;;11.68;6.85;;;;;;;5.49;88.19;99882.44;8330698;28;20033;-62
2021/12/06 19:13:37;;;;;;;9.35;6.10;;;;;;;5.54;88.01;99856.09;8344738;28;20420;-62
2021/12/06 19:17:39;;;;;;;7.78;5.35;;;;;;;5.66;87.14;99853.28;8354246;28;20095;-62